createdAt,value
2022-09-16T00:01:14.008Z,13.30
2022-09-16T00:03:42.381Z,13.30
2022-09-16T00:06:19.383Z,13.30
2022-09-16T00:08:47.922Z,13.30
2022-09-16T00:11:16.636Z,13.30
2022-09-16T00:13:44.654Z,13.30
2022-09-16T00:16:20.281Z,13.30
2022-09-16T00:18:48.706Z,13.30
2022-09-16T00:21:19.344Z,13.30
2022-09-16T00:23:47.423Z,13.30
2022-09-16T00:26:15.757Z,13.30
2022-09-16T00:28:45.807Z,13.30
2022-09-16T00:31:14.007Z,13.30
2022-09-16T00:33:42.029Z,13.30
2022-09-16T00:36:12.035Z,13.30
2022-09-16T00:38:41.986Z,13.30
2022-09-16T00:41:16.575Z,13.30
2022-09-16T00:43:53.819Z,13.30
2022-09-16T00:46:27.883Z,13.30
2022-09-16T00:48:56.383Z,13.30
2022-09-16T00:51:25.373Z,13.30
2022-09-16T00:53:58.008Z,13.30
2022-09-16T00:56:29.005Z,13.30
2022-09-16T00:59:04.120Z,13.30
2022-09-16T01:01:32.957Z,13.20
2022-09-16T01:04:05.474Z,13.20
2022-09-16T01:06:39.872Z,13.20
2022-09-16T01:09:09.476Z,13.20
2022-09-16T01:11:37.533Z,13.20
2022-09-16T01:14:23.894Z,13.20
2022-09-16T01:16:59.255Z,13.10
2022-09-16T01:19:46.033Z,13.10
2022-09-16T01:22:32.277Z,13.00
2022-09-16T01:25:13.199Z,12.90
2022-09-16T01:28:02.207Z,12.80
2022-09-16T01:30:50.000Z,12.70
2022-09-16T01:33:31.788Z,12.70
2022-09-16T01:36:16.353Z,12.70
2022-09-16T01:39:08.148Z,12.80
2022-09-16T01:41:44.772Z,12.90
2022-09-16T01:44:24.197Z,12.90
2022-09-16T01:47:01.299Z,12.90
2022-09-16T01:49:39.675Z,12.90
2022-09-16T01:52:17.996Z,12.90
2022-09-16T01:54:50.579Z,12.90
2022-09-16T01:57:21.589Z,13.00
2022-09-16T01:59:55.780Z,13.00
2022-09-16T02:02:29.543Z,13.00
2022-09-16T02:05:01.082Z,13.00
2022-09-16T02:07:33.706Z,13.00
2022-09-16T02:10:11.353Z,13.00
2022-09-16T02:12:44.937Z,12.90
2022-09-16T02:15:18.773Z,12.90
2022-09-16T02:17:51.707Z,12.90
2022-09-16T02:20:25.506Z,12.80
2022-09-16T02:22:58.399Z,12.80
2022-09-16T02:25:29.703Z,12.80
2022-09-16T02:28:02.263Z,12.80
2022-09-16T02:30:30.310Z,12.70
2022-09-16T02:33:04.643Z,12.80
2022-09-16T02:35:38.050Z,12.80
2022-09-16T02:38:10.785Z,12.80
2022-09-16T02:40:44.075Z,12.90
2022-09-16T02:43:12.201Z,13.00
2022-09-16T02:45:47.802Z,12.90
2022-09-16T02:48:27.169Z,12.70
2022-09-16T02:51:02.901Z,12.60
2022-09-16T02:53:42.026Z,12.50
2022-09-16T02:56:16.711Z,12.40
2022-09-16T02:58:44.951Z,12.40
2022-09-16T03:01:15.279Z,12.40
2022-09-16T03:03:44.807Z,12.30
2022-09-16T03:06:18.703Z,12.30
2022-09-16T03:08:47.998Z,12.30
2022-09-16T03:11:38.646Z,12.30
2022-09-16T03:14:36.405Z,12.20
2022-09-16T03:17:11.184Z,12.20
2022-09-16T03:19:57.355Z,12.10
2022-09-16T03:22:38.399Z,12.00
2022-09-16T03:25:13.103Z,12.10
2022-09-16T03:27:45.699Z,12.20
2022-09-16T03:30:13.809Z,12.20
2022-09-16T03:32:49.602Z,12.30
2022-09-16T03:35:24.108Z,12.40
2022-09-16T03:37:54.859Z,12.40
2022-09-16T03:40:24.377Z,12.40
2022-09-16T03:42:52.695Z,12.40
2022-09-16T03:45:22.405Z,12.40
2022-09-16T03:47:52.392Z,12.40
2022-09-16T03:50:22.666Z,12.40
2022-09-16T03:52:50.632Z,12.40
2022-09-16T03:55:19.132Z,12.30
2022-09-16T03:57:47.122Z,12.40
2022-09-16T04:00:16.720Z,12.40
2022-09-16T04:02:47.484Z,12.40
2022-09-16T04:05:15.688Z,12.40
2022-09-16T04:07:45.006Z,12.40
2022-09-16T04:10:13.319Z,12.40
2022-09-16T04:12:41.259Z,12.40
2022-09-16T04:15:09.975Z,12.40
2022-09-16T04:17:37.963Z,12.50
2022-09-16T04:20:07.814Z,12.50
2022-09-16T04:22:36.122Z,12.50
2022-09-16T04:25:06.109Z,12.50
2022-09-16T04:27:34.216Z,12.50
2022-09-16T04:30:02.381Z,12.50
2022-09-16T04:32:30.454Z,12.50
2022-09-16T04:34:58.491Z,12.50
2022-09-16T04:37:28.816Z,12.60
2022-09-16T04:39:59.849Z,12.60
2022-09-16T04:42:31.707Z,12.60
2022-09-16T04:45:00.514Z,12.60
2022-09-16T04:47:30.623Z,12.60
2022-09-16T04:49:58.688Z,12.50
2022-09-16T04:52:26.659Z,12.50
2022-09-16T04:54:57.422Z,12.50
2022-09-16T04:57:26.365Z,12.50
2022-09-16T04:59:58.481Z,12.50
2022-09-16T05:02:32.569Z,12.50
2022-09-16T05:05:00.608Z,12.50
2022-09-16T05:07:29.367Z,12.50
2022-09-16T05:09:57.932Z,12.40
2022-09-16T05:12:27.135Z,12.40
2022-09-16T05:14:55.072Z,12.40
2022-09-16T05:17:49.322Z,12.40
2022-09-16T05:20:17.692Z,12.40
2022-09-16T05:22:45.958Z,12.50
2022-09-16T05:25:14.425Z,12.60
2022-09-16T05:28:01.816Z,12.60
2022-09-16T05:30:29.853Z,12.60
2022-09-16T05:32:59.240Z,12.50
2022-09-16T05:35:27.195Z,12.40
2022-09-16T05:38:27.663Z,12.40
2022-09-16T05:40:59.788Z,12.50
2022-09-16T05:43:27.833Z,12.50
2022-09-16T05:45:56.666Z,12.50
2022-09-16T05:48:27.287Z,12.50
2022-09-16T05:50:56.634Z,12.60
2022-09-16T05:53:25.487Z,12.70
2022-09-16T05:55:57.831Z,12.70
2022-09-16T05:58:27.022Z,12.80
2022-09-16T06:01:00.126Z,12.80
2022-09-16T06:03:30.565Z,12.80
2022-09-16T06:06:02.051Z,12.70
2022-09-16T06:08:31.412Z,12.70
2022-09-16T06:11:01.767Z,12.60
2022-09-16T06:13:29.789Z,12.60
2022-09-16T06:15:58.027Z,12.50
2022-09-16T06:18:28.753Z,12.50
2022-09-16T06:20:58.646Z,12.40
2022-09-16T06:23:26.823Z,12.30
2022-09-16T06:26:01.389Z,12.30
2022-09-16T06:28:29.534Z,12.10
2022-09-16T06:31:06.300Z,12.10
2022-09-16T06:33:34.954Z,11.90
2022-09-16T06:36:09.743Z,11.90
2022-09-16T06:38:38.131Z,11.80
2022-09-16T06:41:08.819Z,11.90
2022-09-16T06:43:37.620Z,11.90
2022-09-16T06:46:10.297Z,11.80
2022-09-16T06:48:38.309Z,11.70
2022-09-16T06:54:01.805Z,11.60
2022-09-16T06:56:31.410Z,11.50
2022-09-16T06:58:59.636Z,11.60
2022-09-16T07:01:29.792Z,11.60
2022-09-16T07:04:00.310Z,11.60
2022-09-16T07:07:07.604Z,11.60
2022-09-16T07:09:19.751Z,11.50
2022-09-16T07:11:50.495Z,11.50
2022-09-16T07:14:18.946Z,11.40
2022-09-16T07:16:47.271Z,11.30
2022-09-16T07:19:15.457Z,11.40
2022-09-16T07:25:44.498Z,11.30
2022-09-16T07:28:14.266Z,11.30
2022-09-16T07:30:44.134Z,11.30
2022-09-16T07:33:12.182Z,11.10
2022-09-16T07:35:40.299Z,11.00
2022-09-16T07:38:09.948Z,11.00
2022-09-16T07:40:40.852Z,11.00
2022-09-16T07:43:09.019Z,11.00
2022-09-16T07:45:39.199Z,11.00
2022-09-16T07:48:07.357Z,11.10
2022-09-16T07:50:35.456Z,11.10
2022-09-16T07:53:04.360Z,11.00
2022-09-16T07:55:36.640Z,11.00
2022-09-16T07:58:05.253Z,11.00
2022-09-16T08:00:33.338Z,11.00
2022-09-16T08:03:01.494Z,11.00
2022-09-16T08:05:29.879Z,10.90
2022-09-16T08:07:57.972Z,10.90
2022-09-16T08:10:32.334Z,10.80
2022-09-16T08:13:02.278Z,10.80
2022-09-16T08:15:30.624Z,10.70
2022-09-16T08:17:58.773Z,10.60
2022-09-16T08:20:27.122Z,10.70
2022-09-16T08:22:57.952Z,10.70
2022-09-16T08:25:26.498Z,10.70
2022-09-16T08:27:56.375Z,10.70
2022-09-16T08:30:29.135Z,10.70
2022-09-16T08:32:58.103Z,10.60
2022-09-16T08:35:26.775Z,10.60
2022-09-16T08:37:54.882Z,10.70
2022-09-16T08:40:25.721Z,10.70
2022-09-16T08:43:05.459Z,10.80
2022-09-16T08:45:46.818Z,10.80
2022-09-16T08:48:30.697Z,11.00
2022-09-16T08:51:01.614Z,11.00
2022-09-16T08:53:43.506Z,11.20
2022-09-16T08:56:15.440Z,11.40
2022-09-16T08:59:05.184Z,11.50
2022-09-16T09:01:53.551Z,11.60
2022-09-16T09:04:57.050Z,11.50
2022-09-16T09:07:35.558Z,11.60
2022-09-16T09:10:22.932Z,11.60
2022-09-16T09:13:15.543Z,11.50
2022-09-16T09:16:45.512Z,11.60
2022-09-16T09:19:33.389Z,11.60
2022-09-16T09:22:18.724Z,11.60
2022-09-16T09:24:57.377Z,11.70
2022-09-16T09:27:29.459Z,11.90
2022-09-16T09:30:06.681Z,12.10
2022-09-16T09:32:49.845Z,12.10
2022-09-16T09:35:38.608Z,12.10
2022-09-16T09:38:39.745Z,12.20
2022-09-16T09:41:12.981Z,12.20
2022-09-16T09:43:48.365Z,12.20
2022-09-16T09:46:23.513Z,12.10
2022-09-16T09:48:56.816Z,12.00
2022-09-16T09:51:37.221Z,11.80
2022-09-16T09:54:23.212Z,11.90
2022-09-16T09:56:56.398Z,12.00
2022-09-16T09:59:31.758Z,12.20
2022-09-16T10:02:03.510Z,12.20
2022-09-16T10:04:37.959Z,12.40
2022-09-16T10:07:09.264Z,12.40
2022-09-16T10:09:46.421Z,12.50
2022-09-16T10:12:14.488Z,12.50
2022-09-16T10:14:42.572Z,12.50
2022-09-16T10:17:18.039Z,12.40
2022-09-16T10:19:53.540Z,12.40
2022-09-16T10:22:26.766Z,12.50
2022-09-16T10:24:57.262Z,12.70
2022-09-16T10:27:28.465Z,12.90
2022-09-16T10:30:08.906Z,13.30
2022-09-16T10:32:48.323Z,13.50
2022-09-16T10:35:23.808Z,13.60
2022-09-16T10:37:58.072Z,13.80
2022-09-16T10:40:27.296Z,14.00
2022-09-16T10:42:58.588Z,14.10
2022-09-16T10:45:29.069Z,14.20
2022-09-16T10:48:03.446Z,14.30
2022-09-16T10:50:35.056Z,14.40
2022-09-16T10:53:04.543Z,14.70
2022-09-16T10:55:38.013Z,15.00
2022-09-16T10:58:10.179Z,15.00
2022-09-16T11:00:47.567Z,14.60
2022-09-16T11:03:42.613Z,14.40
2022-09-16T11:06:25.911Z,14.40
2022-09-16T11:09:05.902Z,14.60
2022-09-16T11:12:10.386Z,14.40
2022-09-16T11:14:49.525Z,14.30
2022-09-16T11:17:49.166Z,14.20
2022-09-16T11:20:47.523Z,14.20
2022-09-16T11:23:28.335Z,14.20
2022-09-16T11:26:05.514Z,14.40
2022-09-16T11:28:54.870Z,14.50
2022-09-16T11:31:35.484Z,14.40
2022-09-16T11:34:10.591Z,14.40
2022-09-16T11:36:54.896Z,14.40
2022-09-16T11:39:42.237Z,14.30
2022-09-16T11:42:21.215Z,14.30
2022-09-16T11:44:55.751Z,14.00
2022-09-16T11:47:40.856Z,14.00
2022-09-16T11:50:29.798Z,14.00
2022-09-16T11:53:22.329Z,14.20
2022-09-16T11:55:56.731Z,14.20
2022-09-16T11:58:35.395Z,14.30
2022-09-16T12:01:13.208Z,14.40
2022-09-16T12:03:49.022Z,14.50
2022-09-16T12:06:20.790Z,14.40
2022-09-16T12:08:57.331Z,14.70
2022-09-16T12:11:37.399Z,14.80
2022-09-16T12:14:11.619Z,14.80
2022-09-16T12:16:46.289Z,15.00
2022-09-16T12:19:26.585Z,15.10
2022-09-16T12:22:02.170Z,15.20
2022-09-16T12:24:42.316Z,15.10
2022-09-16T12:27:19.839Z,15.00
2022-09-16T12:30:03.577Z,15.30
2022-09-16T12:33:00.546Z,15.40
2022-09-16T12:35:55.400Z,15.30
2022-09-16T12:38:28.856Z,15.50
2022-09-16T12:41:28.085Z,15.60
2022-09-16T12:44:33.544Z,15.90
2022-09-16T12:47:51.715Z,16.00
2022-09-16T12:51:50.205Z,15.70
2022-09-16T12:55:07.807Z,15.70
2022-09-16T12:58:24.370Z,15.50
2022-09-16T13:01:05.746Z,15.70
2022-09-16T13:03:40.457Z,15.70
2022-09-16T13:06:23.312Z,15.90
2022-09-16T13:08:53.096Z,15.90
2022-09-16T13:14:26.649Z,15.40
2022-09-16T13:16:59.545Z,15.20
2022-09-16T13:19:39.327Z,15.00
2022-09-16T13:22:19.120Z,15.00
2022-09-16T13:24:55.087Z,15.20
2022-09-16T13:27:32.726Z,15.20
2022-09-16T13:30:29.695Z,15.20
2022-09-16T13:33:32.454Z,15.10
2022-09-16T13:36:17.972Z,14.90
2022-09-16T13:38:49.638Z,15.00
2022-09-16T13:41:35.292Z,15.10
2022-09-16T13:44:05.303Z,15.20
2022-09-16T13:46:40.632Z,15.50
2022-09-16T13:49:27.767Z,15.70
2022-09-16T13:51:59.069Z,15.70
2022-09-16T13:54:43.226Z,15.70
2022-09-16T13:57:34.151Z,15.60
2022-09-16T14:00:22.960Z,15.60
2022-09-16T14:03:26.507Z,15.60
2022-09-16T14:06:15.787Z,15.30
2022-09-16T14:09:01.716Z,15.30
2022-09-16T14:11:46.957Z,15.30
2022-09-16T14:14:46.245Z,15.30
2022-09-16T14:17:24.777Z,15.30
2022-09-16T14:20:03.138Z,15.30
2022-09-16T14:22:31.799Z,15.50
2022-09-16T14:25:19.298Z,15.70
2022-09-16T14:27:54.677Z,15.50
2022-09-16T14:30:24.462Z,15.40
2022-09-16T14:32:52.526Z,15.30
2022-09-16T14:35:24.056Z,15.20
2022-09-16T14:37:58.738Z,15.30
2022-09-16T14:40:29.493Z,15.40
2022-09-16T14:43:01.477Z,15.50
2022-09-16T14:45:31.686Z,15.70
2022-09-16T14:48:02.831Z,15.50
2022-09-16T14:50:38.296Z,15.40
2022-09-16T14:53:24.262Z,15.10
2022-09-16T14:55:56.976Z,14.90
2022-09-16T14:58:28.483Z,14.70
2022-09-16T15:01:00.845Z,14.70
2022-09-16T15:03:35.812Z,14.60
2022-09-16T15:06:08.518Z,14.60
2022-09-16T15:08:46.990Z,14.50
2022-09-16T15:11:43.618Z,14.70
2022-09-16T15:14:09.221Z,14.90
2022-09-16T15:16:46.006Z,15.00
2022-09-16T15:19:23.077Z,15.10
2022-09-16T15:21:51.817Z,15.10
2022-09-16T15:24:24.905Z,15.20
2022-09-16T15:26:55.144Z,15.40
2022-09-16T15:29:32.839Z,15.20
2022-09-16T15:32:19.531Z,15.10
2022-09-16T15:34:48.124Z,15.00
2022-09-16T15:37:34.440Z,15.00
2022-09-16T15:40:20.769Z,14.90
2022-09-16T15:43:02.306Z,15.00
2022-09-16T15:45:32.490Z,14.90
2022-09-16T15:48:06.268Z,15.00
2022-09-16T15:50:42.288Z,15.00
2022-09-16T15:53:14.015Z,15.00
2022-09-16T15:55:53.108Z,14.90
2022-09-16T15:58:39.601Z,14.90
2022-09-16T16:01:13.367Z,14.70
2022-09-16T16:03:52.945Z,14.80
2022-09-16T16:06:22.161Z,14.70
2022-09-16T16:08:52.038Z,14.70
2022-09-16T16:11:23.558Z,14.60
2022-09-16T16:13:53.220Z,14.60
2022-09-16T16:16:22.498Z,14.50
2022-09-16T16:18:50.625Z,14.40
2022-09-16T16:21:20.891Z,14.40
2022-09-16T16:23:48.945Z,14.40
2022-09-16T16:26:17.064Z,14.30
2022-09-16T16:28:45.117Z,14.30
2022-09-16T16:31:16.952Z,14.30
2022-09-16T16:33:46.490Z,14.30
2022-09-16T16:36:16.013Z,14.30
2022-09-16T16:38:45.532Z,14.20
2022-09-16T16:41:14.175Z,14.20
2022-09-16T16:43:42.415Z,14.20
2022-09-16T16:46:10.459Z,14.30
2022-09-16T16:48:40.202Z,14.30
2022-09-16T16:51:17.012Z,14.30
2022-09-16T16:53:49.296Z,14.20
2022-09-16T16:56:20.124Z,14.20
2022-09-16T16:58:51.029Z,14.10
2022-09-16T17:01:20.763Z,14.10
2022-09-16T17:03:51.446Z,14.00
2022-09-16T17:06:22.590Z,13.80
2022-09-16T17:08:54.330Z,13.70
2022-09-16T17:11:23.169Z,13.50
2022-09-16T17:13:52.845Z,13.40
2022-09-16T17:16:24.581Z,13.30
2022-09-16T17:18:55.452Z,13.20
2022-09-16T17:21:25.160Z,13.10
2022-09-16T17:23:53.652Z,12.90
2022-09-16T17:26:21.954Z,12.90
2022-09-16T17:28:57.976Z,12.80
2022-09-16T17:31:31.270Z,12.70
2022-09-16T17:34:05.560Z,12.60
2022-09-16T17:36:37.965Z,12.50
2022-09-16T17:39:07.792Z,12.40
2022-09-16T17:41:36.134Z,12.40
2022-09-16T17:44:11.285Z,12.30
2022-09-16T17:46:40.183Z,12.20
2022-09-16T17:49:15.326Z,12.20
2022-09-16T17:51:43.430Z,12.10
2022-09-16T17:54:12.102Z,12.00
2022-09-16T17:56:41.033Z,12.00
2022-09-16T17:59:09.365Z,12.00
2022-09-16T18:01:39.813Z,12.00
2022-09-16T18:04:09.417Z,12.10
2022-09-16T18:06:42.215Z,12.20
2022-09-16T18:09:10.764Z,12.20
2022-09-16T18:11:39.908Z,12.10
2022-09-16T18:14:13.206Z,12.10
2022-09-16T18:16:44.003Z,12.10
2022-09-16T18:19:13.355Z,12.20
2022-09-16T18:21:41.662Z,12.30
2022-09-16T18:24:13.182Z,12.40
2022-09-16T18:26:47.758Z,12.50
2022-09-16T18:29:17.839Z,12.40
2022-09-16T18:31:48.591Z,12.30
2022-09-16T18:34:18.589Z,12.20
2022-09-16T18:36:55.965Z,12.20
2022-09-16T18:39:23.982Z,12.20
2022-09-16T18:41:56.557Z,12.10
2022-09-16T18:44:24.764Z,12.10
2022-09-16T18:46:54.544Z,12.00
2022-09-16T18:49:25.341Z,11.90
2022-09-16T18:51:54.245Z,11.80
2022-09-16T18:54:43.992Z,11.70
2022-09-16T18:57:13.138Z,11.60
2022-09-16T18:59:41.464Z,11.60
2022-09-16T19:02:13.475Z,11.50
2022-09-16T19:04:44.079Z,11.40
2022-09-16T19:07:16.347Z,11.40
2022-09-16T19:09:45.987Z,11.40
2022-09-16T19:12:14.809Z,11.40
2022-09-16T19:14:42.868Z,11.40
2022-09-16T19:17:11.120Z,11.30
2022-09-16T19:19:39.085Z,11.30
2022-09-16T19:22:08.561Z,11.30
2022-09-16T19:24:38.630Z,11.40
2022-09-16T19:27:09.625Z,11.30
2022-09-16T19:29:37.686Z,11.30
2022-09-16T19:32:08.988Z,11.40
2022-09-16T19:34:37.124Z,11.40
2022-09-16T19:37:05.332Z,11.50
2022-09-16T19:39:36.727Z,11.50
2022-09-16T19:42:11.163Z,11.40
2022-09-16T19:44:39.191Z,11.50
2022-09-16T19:47:09.931Z,11.50
2022-09-16T19:49:37.921Z,11.50
2022-09-16T19:52:06.196Z,11.40
2022-09-16T19:54:35.625Z,11.40
2022-09-16T19:57:03.710Z,11.40
2022-09-16T19:59:34.340Z,11.30
2022-09-16T20:02:02.245Z,11.30
2022-09-16T20:04:30.681Z,11.20
2022-09-16T20:06:58.762Z,11.20
2022-09-16T20:09:28.186Z,11.10
2022-09-16T20:11:58.603Z,11.00
2022-09-16T20:14:33.879Z,11.00
2022-09-16T20:17:02.408Z,11.00
2022-09-16T20:19:31.166Z,11.00
2022-09-16T20:21:59.465Z,11.00
2022-09-16T20:24:27.538Z,11.00
2022-09-16T20:27:01.917Z,11.00
2022-09-16T20:29:30.811Z,11.00
2022-09-16T20:31:58.934Z,10.90
2022-09-16T20:34:27.108Z,10.90
2022-09-16T20:36:55.114Z,11.00
2022-09-16T20:39:28.058Z,11.00
2022-09-16T20:41:58.510Z,11.00
2022-09-16T20:44:26.882Z,11.00
2022-09-16T20:46:54.827Z,11.00
2022-09-16T20:49:25.311Z,11.00
2022-09-16T20:51:55.169Z,11.00
2022-09-16T20:54:23.592Z,11.00
2022-09-16T20:56:51.526Z,10.90
2022-09-16T20:59:21.539Z,10.90
2022-09-16T21:01:51.815Z,10.90
2022-09-16T21:04:21.200Z,10.80
2022-09-16T21:06:49.577Z,10.70
2022-09-16T21:09:19.075Z,10.70
2022-09-16T21:11:47.260Z,10.70
2022-09-16T21:14:17.210Z,10.60
2022-09-16T21:16:47.978Z,10.60
2022-09-16T21:19:18.168Z,10.50
2022-09-16T21:21:49.130Z,10.50
2022-09-16T21:24:17.604Z,10.40
2022-09-16T21:26:46.157Z,10.30
2022-09-16T21:29:17.896Z,10.30
2022-09-16T21:31:48.523Z,10.20
2022-09-16T21:34:18.223Z,10.20
2022-09-16T21:36:47.794Z,10.20
2022-09-16T21:39:17.138Z,10.20
2022-09-16T21:41:47.802Z,10.30
2022-09-16T21:44:16.282Z,10.30
2022-09-16T21:46:47.882Z,10.40
2022-09-16T21:49:22.426Z,10.50
2022-09-16T21:51:51.403Z,10.50
2022-09-16T21:54:20.594Z,10.50
2022-09-16T21:56:49.854Z,10.50
2022-09-16T21:59:19.865Z,10.50
2022-09-16T22:01:52.104Z,10.50
2022-09-16T22:04:21.805Z,10.60
2022-09-16T22:06:50.291Z,10.60
2022-09-16T22:09:18.700Z,10.60
2022-09-16T22:11:47.092Z,10.60
2022-09-16T22:14:25.185Z,10.50
2022-09-16T22:16:54.612Z,10.60
2022-09-16T22:19:22.511Z,10.60
2022-09-16T22:21:53.171Z,10.60
2022-09-16T22:24:21.450Z,10.60
2022-09-16T22:26:56.430Z,10.60
2022-09-16T22:29:24.451Z,10.60
2022-09-16T22:31:56.814Z,10.60
2022-09-16T22:34:24.823Z,10.50
2022-09-16T22:36:52.820Z,10.40
2022-09-16T22:39:21.111Z,10.30
2022-09-16T22:41:52.403Z,10.30
2022-09-16T22:44:20.384Z,10.30
2022-09-16T22:46:50.961Z,10.30
2022-09-16T22:49:45.989Z,10.30
2022-09-16T22:52:14.071Z,10.30
2022-09-16T22:54:43.372Z,10.30
2022-09-16T22:57:13.036Z,10.20
2022-09-16T22:59:51.283Z,10.20
2022-09-16T23:02:40.098Z,10.20
2022-09-16T23:05:20.906Z,10.10
2022-09-16T23:07:56.222Z,10.10
2022-09-16T23:10:26.851Z,10.00
2022-09-16T23:12:55.327Z,10.00
2022-09-16T23:15:23.347Z,9.90
2022-09-16T23:17:51.463Z,9.90
2022-09-16T23:20:20.804Z,9.90
2022-09-16T23:22:50.730Z,9.90
2022-09-16T23:25:18.718Z,9.90
2022-09-16T23:27:46.662Z,9.80
2022-09-16T23:30:14.850Z,9.70
2022-09-16T23:32:42.918Z,9.60
2022-09-16T23:35:14.171Z,9.60
2022-09-16T23:37:50.156Z,9.50
2022-09-16T23:40:21.259Z,9.50
2022-09-16T23:42:54.316Z,9.40
2022-09-16T23:45:28.869Z,9.50
2022-09-16T23:47:56.929Z,9.50
2022-09-16T23:50:24.988Z,9.50
2022-09-16T23:52:57.129Z,9.50
2022-09-16T23:55:25.178Z,9.50
2022-09-16T23:57:54.182Z,9.50
